Time;durP1;ratioP1;P1;durP2;ratioP2;P2;SDS_P1;SDS_P2;PMS_P1;PMS_P2;Temp;Humidity;BMP_temperature;BMP_pressure;BME280_temperature;BME280_humidity;BME280_pressure;Samples;Min_cycle;Max_cycle;Signal;HPM_P1;HPM_P2
2021/01/25 00:01:52;;;;;;;9.60;8.77;;;-1.30;99.90;;;-0.62;83.98;96287.47;5219346;28;20298;-72
2021/01/25 00:04:25;;;;;;;10.03;9.13;;;-1.30;99.90;;;-0.60;83.75;96276.78;5224088;28;20226;-72
2021/01/25 00:06:57;;;;;;;8.67;7.73;;;-1.30;99.90;;;-0.65;84.03;96280.59;5225024;28;20297;-72
2021/01/25 00:09:29;;;;;;;8.70;7.87;;;-1.30;99.90;;;-0.61;84.38;96276.66;5207396;28;20294;-72
2021/01/25 00:12:01;;;;;;;8.33;7.63;;;-1.30;99.90;;;-0.60;84.36;96269.25;5222579;28;20207;-72
2021/01/25 00:14:34;;;;;;;8.70;7.80;;;-1.30;99.90;;;-0.53;84.77;96283.97;5217947;28;20311;-72
2021/01/25 00:17:06;;;;;;;9.43;8.50;;;-1.30;99.90;;;-0.55;83.68;96272.94;5220131;28;20284;-72
2021/01/25 00:19:38;;;;;;;9.77;8.97;;;-1.20;99.90;;;-0.52;84.05;96273.19;5223952;28;20285;-72
2021/01/25 00:22:10;;;;;;;10.50;9.40;;;-1.20;99.90;;;-0.53;83.20;96268.06;5224354;28;20205;-72
2021/01/25 00:24:42;;;;;;;11.70;10.57;;;-1.20;99.90;;;-0.82;83.57;96269.31;5209533;28;20222;-72
2021/01/25 00:27:14;;;;;;;9.90;9.00;;;-1.40;99.90;;;-0.73;83.40;96261.59;5223649;28;20203;-72
2021/01/25 00:29:47;;;;;;;10.53;9.53;;;-1.50;99.90;;;-0.76;83.30;96261.34;5221613;28;20207;-72
2021/01/25 00:32:19;;;;;;;10.27;8.90;;;-1.40;99.90;;;-0.71;84.15;96265.09;5217877;28;20230;-72
2021/01/25 00:34:51;;;;;;;10.63;9.73;;;-1.40;99.90;;;-0.63;83.69;96258.09;5223216;28;20313;-74
2021/01/25 00:37:23;;;;;;;12.07;10.93;;;-1.40;99.90;;;-0.70;83.53;96249.25;5223134;28;20199;-72
2021/01/25 00:39:55;;;;;;;11.40;10.30;;;-1.40;99.90;;;-0.60;82.50;96251.69;5215982;28;21736;-72
2021/01/25 00:42:27;;;;;;;10.40;9.40;;;-1.30;99.90;;;-0.55;83.59;96244.50;5221946;28;20573;-72
2021/01/25 00:45:01;;;;;;;10.00;9.00;;;-1.30;99.90;;;-0.59;83.06;96243.41;5221383;28;20654;-73
2021/01/25 00:47:33;;;;;;;10.17;9.10;;;-1.30;99.90;;;-0.50;83.65;96251.59;5213018;28;20234;-72
2021/01/25 00:50:07;;;;;;;11.07;10.07;;;-1.20;99.90;;;-0.47;83.93;96243.41;5208612;28;20195;-72
2021/01/25 00:52:40;;;;;;;9.63;8.73;;;-1.10;99.90;;;-0.37;83.40;96237.41;5212948;28;20207;-71
2021/01/25 00:55:14;;;;;;;9.47;8.57;;;-1.10;99.90;;;-0.35;83.37;96225.84;5224123;28;20752;-72
2021/01/25 00:57:46;;;;;;;9.10;8.30;;;-1.00;99.90;;;-0.32;83.67;96221.03;5221049;28;20209;-72
2021/01/25 01:00:21;;;;;;;9.87;8.97;;;-1.00;99.90;;;-0.27;83.30;96217.25;5219987;28;20206;-72
2021/01/25 01:02:53;;;;;;;8.53;7.83;;;-1.00;99.90;;;-0.29;83.28;96211.22;5221026;28;20223;-72
2021/01/25 01:05:25;;;;;;;7.97;7.27;;;-1.00;99.90;;;-0.24;82.99;96202.41;5205286;28;20210;-71
2021/01/25 01:07:57;;;;;;;9.43;8.63;;;-1.00;99.90;;;-0.32;83.24;96208.50;5211189;28;20207;-72
2021/01/25 01:10:29;;;;;;;10.90;9.90;;;-1.10;99.90;;;-0.20;82.95;96205.97;5209600;28;20691;-72
2021/01/25 01:13:02;;;;;;;11.27;10.17;;;-1.00;99.90;;;-0.25;81.28;96208.19;5219184;28;20699;-72
2021/01/25 01:15:35;;;;;;;11.00;10.10;;;-1.10;99.90;;;-0.39;80.46;96203.81;5221568;28;20229;-71
2021/01/25 01:18:07;;;;;;;10.27;9.40;;;-1.20;99.90;;;-0.60;81.69;96199.03;5220950;28;20604;-73
2021/01/25 01:20:39;;;;;;;10.07;9.00;;;-1.30;99.90;;;-0.64;82.14;96197.03;5222845;28;20288;-72
2021/01/25 01:23:11;;;;;;;9.53;8.67;;;-1.30;99.90;;;-0.65;82.48;96192.78;5215449;28;20270;-73
2021/01/25 01:25:43;;;;;;;10.07;9.17;;;-1.30;99.90;;;-0.68;82.99;96200.97;5212944;28;20195;-74
2021/01/25 01:28:15;;;;;;;9.90;8.97;;;-1.30;99.90;;;-0.71;81.81;96199.88;5203762;28;20557;-71
2021/01/25 01:30:48;;;;;;;11.33;9.60;;;-1.30;99.90;;;-0.68;82.51;96200.97;5214624;28;20651;-72
2021/01/25 01:33:20;;;;;;;9.47;8.47;;;-1.30;99.90;;;-0.62;82.16;96205.56;5223484;28;20309;-72
2021/01/25 01:35:52;;;;;;;10.63;9.53;;;-1.30;99.90;;;-0.55;81.70;96211.88;5222194;28;20602;-72
2021/01/25 01:38:24;;;;;;;10.20;9.27;;;-1.20;99.90;;;-0.55;81.56;96206.84;5218031;28;20192;-72
2021/01/25 01:40:58;;;;;;;9.93;9.03;;;-1.20;99.90;;;-0.51;82.56;96206.34;5216631;28;20324;-72
2021/01/25 01:43:30;;;;;;;9.13;8.23;;;-1.20;99.90;;;-0.45;82.07;96206.75;5227396;28;20219;-72
2021/01/25 01:46:03;;;;;;;8.93;8.03;;;-1.10;99.90;;;-0.36;81.74;96209.06;5222585;28;20220;-72
2021/01/25 01:48:36;;;;;;;9.83;8.93;;;-1.10;99.90;;;-0.42;81.19;96208.63;5223928;28;21705;-72
2021/01/25 01:51:08;;;;;;;8.80;7.90;;;-1.10;99.90;;;-0.34;81.54;96200.00;5221969;28;20195;-72
2021/01/25 01:53:41;;;;;;;9.73;8.83;;;-1.10;99.90;;;-0.34;81.29;96188.34;5226944;28;20223;-72
2021/01/25 01:56:13;;;;;;;9.40;8.60;;;-1.00;99.90;;;-0.31;81.51;96197.72;5225246;28;20307;-73
2021/01/25 01:58:45;;;;;;;9.00;8.20;;;-1.00;99.90;;;-0.31;81.99;96191.06;5226913;28;20272;-74
2021/01/25 02:01:18;;;;;;;8.97;8.07;;;-1.00;99.90;;;-0.32;81.35;96185.91;5221200;28;20215;-73
2021/01/25 02:03:51;;;;;;;8.57;7.77;;;-1.00;99.90;;;-0.26;81.73;96183.84;5226770;28;20284;-72
2021/01/25 02:06:24;;;;;;;9.23;8.33;;;-1.10;99.90;;;-0.32;81.32;96188.41;5226199;28;20205;-72
2021/01/25 02:08:58;;;;;;;9.60;8.70;;;-1.10;99.90;;;-0.29;80.05;96181.97;5212292;28;20212;-73
2021/01/25 02:11:33;;;;;;;9.90;9.00;;;-1.10;99.90;;;-0.42;80.34;96179.38;5222649;28;20210;-74
2021/01/25 02:14:06;;;;;;;9.77;8.77;;;-1.20;99.90;;;-0.48;81.13;96174.78;5227160;28;20234;-72
2021/01/25 02:16:46;;;;;;;9.07;8.27;;;-1.20;99.90;;;-0.48;80.85;96173.94;5220867;28;20211;-72
2021/01/25 02:19:35;;;;;;;8.43;7.70;;;-1.20;99.90;;;-0.66;80.79;96175.09;5226219;28;20286;-72
2021/01/25 02:22:40;;;;;;;7.90;7.20;;;-1.30;99.90;;;-0.64;81.34;96171.06;5225098;28;20723;-72
2021/01/25 02:25:18;;;;;;;8.37;7.67;;;-1.30;99.90;;;-0.56;81.39;96173.38;5226209;28;20206;-73
2021/01/25 02:27:52;;;;;;;7.90;7.30;;;-1.30;99.90;;;-0.58;80.46;96169.00;5223546;28;20230;-72
2021/01/25 02:30:25;;;;;;;8.60;7.57;;;-1.30;99.90;;;-0.65;81.40;96155.16;5219013;28;20195;-73
2021/01/25 02:32:57;;;;;;;8.93;8.03;;;-1.30;99.90;;;-0.68;82.29;96164.97;5224355;28;20229;-72
2021/01/25 02:35:31;;;;;;;9.03;8.17;;;-1.30;99.90;;;-0.60;82.00;96168.91;5226128;28;20274;-72
2021/01/25 02:38:05;;;;;;;8.53;7.80;;;-1.30;99.90;;;-0.63;81.79;96161.16;5219821;28;20279;-72
2021/01/25 02:40:38;;;;;;;8.20;7.43;;;-1.30;99.90;;;-0.57;82.42;96164.13;5218033;28;20674;-72
2021/01/25 02:43:12;;;;;;;7.07;6.47;;;-1.30;99.90;;;-0.58;82.78;96164.84;5223003;28;20318;-72
2021/01/25 02:45:46;;;;;;;7.10;6.50;;;-1.20;99.90;;;-0.52;82.46;96161.91;5224007;28;20195;-72
2021/01/25 02:48:19;;;;;;;6.70;6.20;;;-1.10;99.90;;;-0.28;80.88;96165.31;5224442;28;20200;-72
2021/01/25 02:50:51;;;;;;;7.13;6.43;;;-1.10;99.90;;;-0.37;80.85;96163.03;5226363;28;20203;-72
2021/01/25 02:53:23;;;;;;;7.40;6.63;;;-1.10;99.90;;;-0.40;81.21;96160.28;5216133;28;20249;-73
2021/01/25 02:55:57;;;;;;;6.80;6.20;;;-1.10;99.90;;;-0.46;81.22;96163.25;5219075;28;20856;-72
2021/01/25 02:58:30;;;;;;;7.17;6.47;;;-1.10;99.90;;;-0.35;81.05;96158.09;5224905;28;20205;-73
2021/01/25 03:01:03;;;;;;;6.83;6.23;;;-1.00;99.90;;;-0.31;81.49;96157.56;5223883;28;20331;-72
2021/01/25 03:03:36;;;;;;;6.53;5.97;;;-1.00;99.90;;;-0.19;80.20;96155.91;5219418;28;20217;-72
2021/01/25 03:06:10;;;;;;;7.23;6.67;;;-0.80;99.90;;;-0.04;80.53;96154.44;5205430;28;20205;-72
2021/01/25 03:08:46;;;;;;;6.03;5.53;;;-0.80;99.90;;;0.04;78.96;96144.94;5218278;28;20213;-72
2021/01/25 03:11:19;;;;;;;6.73;6.13;;;-0.70;99.90;;;0.09;77.98;96150.28;5218221;28;20734;-72
2021/01/25 03:13:52;;;;;;;6.97;6.40;;;-0.60;99.90;;;0.09;77.84;96166.22;5226071;28;20305;-72
2021/01/25 03:16:24;;;;;;;7.10;6.50;;;-0.60;99.90;;;0.05;77.64;96170.91;5221190;28;20201;-73
2021/01/25 03:18:57;;;;;;;6.17;5.57;;;-0.60;99.90;;;0.12;77.84;96165.56;5225850;28;20283;-72
2021/01/25 03:21:29;;;;;;;6.67;6.17;;;-0.60;99.90;;;0.11;78.87;96168.81;5224745;28;20291;-72
2021/01/25 03:24:03;;;;;;;6.57;6.07;;;-0.60;99.90;;;0.13;78.81;96163.16;5225199;28;20308;-72
2021/01/25 03:26:35;;;;;;;7.03;6.43;;;-0.50;99.90;;;0.19;78.88;96166.06;5223001;28;20244;-72
2021/01/25 03:29:10;;;;;;;7.50;6.40;;;-0.50;99.90;;;0.17;78.98;96170.16;5221939;28;20200;-72
2021/01/25 03:31:42;;;;;;;5.40;5.00;;;-0.50;99.90;;;0.15;79.02;96168.28;5221242;28;20627;-72
2021/01/25 03:34:14;;;;;;;6.63;6.13;;;-0.60;99.90;;;-0.02;78.20;96162.97;5220961;28;20286;-74
2021/01/25 03:36:46;;;;;;;6.90;6.33;;;-0.60;99.90;;;0.09;77.21;96167.88;5225014;28;20644;-74
2021/01/25 03:39:19;;;;;;;6.83;6.23;;;-0.60;99.90;;;0.11;77.23;96163.81;5224276;28;20227;-73
2021/01/25 03:41:51;;;;;;;6.77;6.07;;;-0.50;99.90;;;0.15;76.96;96155.72;5221931;28;20202;-72
2021/01/25 03:44:24;;;;;;;7.07;6.47;;;-0.50;99.90;;;0.27;76.51;96159.06;5224105;28;20689;-72
2021/01/25 03:46:56;;;;;;;7.17;6.47;;;-0.40;99.90;;;0.32;77.07;96161.91;5221191;28;20203;-73
2021/01/25 03:49:28;;;;;;;6.97;6.37;;;-0.40;99.90;;;0.36;77.11;96158.81;5213882;28;20692;-73
2021/01/25 03:52:00;;;;;;;7.10;6.47;;;-0.30;99.90;;;0.42;77.38;96161.75;5204093;28;20209;-73
2021/01/25 03:54:35;;;;;;;6.40;5.90;;;-0.30;99.90;;;0.49;77.00;96163.03;5215776;28;20231;-72
2021/01/25 03:57:07;;;;;;;6.67;6.17;;;-0.20;99.90;;;0.61;75.42;96168.91;5224533;28;20586;-73
2021/01/25 03:59:40;;;;;;;7.20;6.50;;;-0.10;99.90;;;0.55;75.15;96169.34;5219988;28;20228;-73
2021/01/25 04:02:13;;;;;;;7.53;6.83;;;-0.10;99.90;;;0.55;75.25;96169.34;5220561;28;20225;-74
2021/01/25 04:04:45;;;;;;;7.73;7.13;;;-0.10;99.90;;;0.63;75.37;96179.91;5224704;28;20202;-73
2021/01/25 04:07:17;;;;;;;7.17;6.57;;;-0.10;99.90;;;0.65;75.62;96185.91;5223543;28;20193;-73
2021/01/25 04:09:49;;;;;;;7.10;6.50;;;0.00;99.90;;;0.69;76.10;96187.88;5207109;28;20609;-73
2021/01/25 04:12:25;;;;;;;7.47;6.77;;;0.00;99.90;;;0.83;76.95;96197.22;5224315;28;20697;-73
2021/01/25 04:14:58;;;;;;;6.97;6.37;;;-0.10;99.90;;;0.75;78.00;96197.47;5219843;28;20252;-73
2021/01/25 04:17:30;;;;;;;7.23;6.53;;;-0.20;99.90;;;0.60;78.71;96198.19;5220838;28;20684;-73
2021/01/25 04:20:03;;;;;;;8.27;7.50;;;-0.20;99.90;;;0.59;79.60;96193.91;5223548;28;20271;-73
2021/01/25 04:22:36;;;;;;;7.90;7.10;;;-0.20;99.90;;;0.63;80.51;96197.50;5220729;28;20212;-73
2021/01/25 04:25:10;;;;;;;7.77;7.20;;;-0.30;99.90;;;0.57;80.89;96197.09;5215965;28;20225;-73
2021/01/25 04:27:42;;;;;;;8.10;7.40;;;-0.30;99.90;;;0.54;81.22;96191.84;5223765;28;20645;-73
2021/01/25 04:30:17;;;;;;;8.30;7.50;;;-0.40;99.90;;;0.52;81.73;96188.41;5220809;28;20205;-74
2021/01/25 04:32:49;;;;;;;8.47;7.77;;;-0.40;99.90;;;0.48;81.98;96186.41;5219065;28;20220;-72
2021/01/25 04:35:21;;;;;;;8.53;7.90;;;-0.40;99.90;;;0.42;81.45;96197.78;5223864;28;20224;-72
2021/01/25 04:37:54;;;;;;;8.33;7.53;;;-0.50;99.90;;;0.41;82.26;96195.19;5218959;28;20196;-73
2021/01/25 04:40:26;;;;;;;8.53;7.83;;;-0.40;99.90;;;0.37;82.76;96191.59;5213192;28;20205;-73
2021/01/25 04:43:00;;;;;;;8.93;8.13;;;-0.40;99.90;;;0.41;82.68;96193.53;5223518;28;20315;-72
2021/01/25 04:45:33;;;;;;;9.30;8.27;;;-0.40;99.90;;;0.38;83.65;96195.84;5223203;28;20213;-72
2021/01/25 04:48:07;;;;;;;8.53;7.73;;;-0.50;99.90;;;0.38;84.00;96189.97;5220693;28;20656;-72
2021/01/25 04:50:39;;;;;;;9.13;8.23;;;-0.40;99.90;;;0.42;84.03;96195.28;5214869;28;20204;-72
2021/01/25 04:53:13;;;;;;;8.80;7.93;;;-0.50;99.90;;;0.46;84.27;96196.38;5215383;28;20219;-73
2021/01/25 04:55:46;;;;;;;8.47;7.63;;;-0.50;99.90;;;0.37;84.59;96189.09;5218340;28;20320;-72
2021/01/25 04:58:18;;;;;;;9.07;8.27;;;-0.50;99.90;;;0.38;85.19;96190.81;5224224;28;20557;-72
2021/01/25 05:00:52;;;;;;;9.70;8.90;;;-0.50;99.90;;;0.40;85.27;96195.94;5218011;28;20205;-73
2021/01/25 05:03:24;;;;;;;10.43;9.43;;;-0.50;99.90;;;0.40;85.16;96189.31;5217832;28;20235;-72
2021/01/25 05:05:57;;;;;;;13.30;11.10;;;-0.50;99.90;;;0.40;85.52;96186.78;5203624;28;20194;-72
2021/01/25 05:08:29;;;;;;;13.20;11.63;;;-0.50;99.90;;;0.44;85.26;96192.88;5223364;28;20193;-74
2021/01/25 05:11:12;;;;;;;10.87;9.83;;;-0.40;99.90;;;0.48;85.84;96191.44;5224995;28;20208;-72
2021/01/25 05:13:44;;;;;;;9.43;8.63;;;-0.40;99.90;;;0.51;85.63;96190.00;5222631;28;20305;-72
2021/01/25 05:16:19;;;;;;;11.40;10.40;;;-0.40;99.90;;;0.42;86.39;96190.25;5216434;28;20265;-72
2021/01/25 05:18:56;;;;;;;11.17;10.07;;;-0.50;99.90;;;0.41;86.47;96191.03;5219738;28;20210;-72
2021/01/25 05:21:34;;;;;;;11.53;10.43;;;-0.40;99.90;;;0.38;86.60;96195.84;5225906;28;20198;-73
2021/01/25 05:24:08;;;;;;;10.40;9.57;;;-0.50;99.90;;;0.33;86.63;96197.16;5227142;28;20227;-72
2021/01/25 05:26:52;;;;;;;11.47;10.37;;;-0.50;99.90;;;0.32;87.05;96205.50;5226357;28;20204;-72
2021/01/25 05:29:25;;;;;;;11.10;10.10;;;-0.60;99.90;;;0.32;87.22;96210.50;5208730;28;20218;-72
2021/01/25 05:31:58;;;;;;;11.60;10.63;;;-0.60;99.90;;;0.29;86.54;96201.91;5223848;28;20201;-73
2021/01/25 05:34:30;;;;;;;11.97;10.77;;;-0.60;99.90;;;0.30;87.49;96207.00;5219683;28;20221;-72
2021/01/25 05:37:02;;;;;;;11.87;10.70;;;-0.50;99.90;;;0.31;87.28;96206.22;5227290;28;20197;-72
2021/01/25 05:39:34;;;;;;;11.17;10.03;;;-0.50;99.90;;;0.32;87.71;96192.94;5211052;28;20190;-72
2021/01/25 05:42:07;;;;;;;11.07;10.00;;;-0.50;99.90;;;0.39;87.58;96197.59;5219366;28;20246;-72
2021/01/25 05:44:40;;;;;;;11.93;10.73;;;-0.50;99.90;;;0.42;87.65;96202.81;5226680;28;20227;-72
2021/01/25 05:47:13;;;;;;;11.93;10.83;;;-0.50;99.90;;;0.40;87.38;96203.47;5223759;28;20218;-74
2021/01/25 05:49:48;;;;;;;13.20;11.93;;;-0.50;99.90;;;0.35;87.99;96200.66;5234234;28;20279;-72
2021/01/25 05:52:20;;;;;;;14.17;12.77;;;-0.50;99.90;;;0.33;87.88;96209.72;5225906;28;20207;-72
2021/01/25 05:54:52;;;;;;;13.43;12.23;;;-0.60;99.90;;;0.33;88.01;96199.69;5226106;28;20601;-72
2021/01/25 05:57:25;;;;;;;14.53;13.03;;;-0.60;99.90;;;0.30;87.90;96201.13;5222297;28;20204;-74
2021/01/25 05:59:57;;;;;;;13.50;12.20;;;-0.50;99.90;;;0.32;88.39;96209.66;5223488;28;20208;-74
2021/01/25 06:02:33;;;;;;;13.03;11.73;;;-0.60;99.90;;;0.33;88.17;96199.69;5218069;28;20233;-72
2021/01/25 06:05:09;;;;;;;13.40;12.17;;;-0.50;99.90;;;0.35;88.17;96208.22;5227073;28;20422;-72
2021/01/25 06:07:42;;;;;;;13.03;11.77;;;-0.50;99.90;;;0.38;88.27;96203.41;5226104;28;20197;-72
2021/01/25 06:10:21;;;;;;;13.63;12.03;;;-0.50;99.90;;;0.45;88.66;96202.16;5221424;28;20288;-72
2021/01/25 06:13:06;;;;;;;12.70;11.60;;;-0.50;99.90;;;0.45;88.75;96204.69;5222790;28;20753;-72
2021/01/25 06:15:41;;;;;;;13.23;11.93;;;-0.50;99.90;;;0.50;88.42;96205.00;5221353;28;20214;-74
2021/01/25 06:18:18;;;;;;;13.40;12.10;;;-0.50;99.90;;;0.51;88.38;96209.25;5217404;28;20204;-73
2021/01/25 06:20:55;;;;;;;14.10;12.70;;;-0.50;99.90;;;0.51;88.22;96211.75;5224286;28;20215;-73
2021/01/25 06:23:28;;;;;;;13.63;12.17;;;-0.50;99.90;;;0.54;88.17;96209.44;5221216;28;20249;-72
2021/01/25 06:26:01;;;;;;;12.60;11.50;;;-0.50;99.90;;;0.45;88.63;96214.72;5216258;28;21827;-74
2021/01/25 06:28:34;;;;;;;13.83;11.63;;;-0.50;99.90;;;0.44;88.57;96211.34;5210332;28;20706;-72
2021/01/25 06:31:07;;;;;;;14.50;13.03;;;-0.50;99.90;;;0.43;88.85;96207.09;5210840;28;20401;-74
2021/01/25 06:33:40;;;;;;;13.83;12.27;;;-0.50;99.90;;;0.45;88.91;96225.66;5220258;28;20229;-72
2021/01/25 06:36:17;;;;;;;12.27;11.17;;;-0.50;99.90;;;0.47;89.21;96224.91;5222903;28;20224;-72
2021/01/25 06:38:50;;;;;;;12.73;11.53;;;-0.50;99.90;;;0.54;89.54;96222.03;5221760;28;20204;-72
2021/01/25 06:41:22;;;;;;;13.70;12.40;;;-0.40;99.90;;;0.54;88.72;96219.50;5213854;28;20296;-74
2021/01/25 06:43:56;;;;;;;12.37;11.27;;;-0.50;99.90;;;0.51;88.67;96217.66;5209540;28;20679;-74
2021/01/25 06:46:32;;;;;;;12.70;11.40;;;-0.50;99.90;;;0.50;88.39;96235.16;5210577;28;20676;-72
2021/01/25 06:49:07;;;;;;;13.00;11.90;;;-0.50;99.90;;;0.52;89.02;96238.66;5221169;28;20464;-74
2021/01/25 06:51:41;;;;;;;13.83;12.43;;;-0.50;99.90;;;0.47;88.79;96242.50;5221796;28;20209;-73
2021/01/25 06:54:13;;;;;;;14.53;13.13;;;-0.50;99.90;;;0.48;89.24;96249.25;5222726;28;20318;-72
2021/01/25 06:56:51;;;;;;;12.47;11.23;;;-0.50;99.90;;;0.47;89.30;96250.03;5221281;28;20202;-72
2021/01/25 06:59:30;;;;;;;13.70;12.50;;;-0.40;99.90;;;0.50;89.70;96247.72;5223696;28;20297;-72
2021/01/25 07:02:09;;;;;;;13.00;11.70;;;-0.40;99.90;;;0.50;89.00;96255.25;5217641;28;20219;-70
2021/01/25 07:04:45;;;;;;;13.33;11.93;;;-0.50;99.90;;;0.50;89.38;96255.25;5218755;28;20284;-72
2021/01/25 07:07:23;;;;;;;13.40;12.10;;;-0.40;99.90;;;0.51;89.46;96262.03;5210987;28;20197;-69
2021/01/25 07:09:57;;;;;;;14.60;13.33;;;-0.40;99.90;;;0.54;89.49;96267.25;5214365;28;20659;-70
2021/01/25 07:12:29;;;;;;;13.57;12.33;;;-0.40;99.90;;;0.52;89.37;96281.38;5220402;28;20230;-71
2021/01/25 07:15:02;;;;;;;15.43;13.67;;;-0.40;99.90;;;0.56;89.54;96278.31;5217947;28;20247;-70
2021/01/25 07:17:34;;;;;;;14.43;13.03;;;-0.30;99.90;;;0.56;89.39;96279.16;5209880;28;20200;-71
2021/01/25 07:20:09;;;;;;;14.17;12.77;;;-0.30;99.90;;;0.59;89.30;96283.53;5218282;28;20204;-70
2021/01/25 07:22:42;;;;;;;15.03;13.60;;;-0.30;99.90;;;0.61;89.16;96289.56;5219416;28;20205;-69
2021/01/25 07:25:15;;;;;;;13.93;12.53;;;-0.30;99.90;;;0.63;89.16;96288.00;5220743;28;20231;-69
2021/01/25 07:27:48;;;;;;;14.87;12.47;;;-0.30;99.90;;;0.64;89.22;96289.75;5222471;28;20205;-71
2021/01/25 07:30:21;;;;;;;14.17;12.63;;;-0.30;99.90;;;0.65;89.45;96294.88;5219305;28;20201;-70
2021/01/25 07:32:54;;;;;;;13.80;12.27;;;-0.30;99.90;;;0.65;89.19;96301.56;5219594;28;20664;-72
2021/01/25 07:35:28;;;;;;;14.90;12.63;;;-0.30;99.90;;;0.68;89.14;96301.75;5208205;28;20225;-71
2021/01/25 07:38:00;;;;;;;14.17;12.70;;;-0.20;99.90;;;0.73;88.88;96305.47;5222877;28;20204;-69
2021/01/25 07:40:32;;;;;;;14.57;13.03;;;-0.20;99.90;;;0.74;89.18;96308.84;5219909;28;20217;-70
2021/01/25 07:43:06;;;;;;;14.77;12.80;;;-0.20;99.90;;;0.80;88.95;96316.81;5208756;28;20232;-72
2021/01/25 07:45:38;;;;;;;14.17;12.83;;;-0.20;99.90;;;0.76;88.76;96314.88;5209725;28;20562;-70
2021/01/25 07:48:11;;;;;;;15.37;13.87;;;-0.20;99.90;;;0.76;89.00;96315.75;5217070;28;20206;-71
2021/01/25 07:50:53;;;;;;;13.53;12.20;;;-0.20;99.90;;;0.74;88.82;96317.25;5221469;28;20205;-71
2021/01/25 07:53:26;;;;;;;15.80;14.23;;;-0.10;99.90;;;0.78;89.02;96324.28;5210139;28;20226;-70
2021/01/25 07:55:58;;;;;;;16.63;15.07;;;-0.10;99.90;;;0.79;89.34;96323.50;5212673;28;20666;-70
2021/01/25 07:58:30;;;;;;;15.63;14.17;;;-0.10;99.90;;;0.81;89.42;96323.63;5210332;28;20236;-70
2021/01/25 08:01:12;;;;;;;15.53;14.03;;;-0.10;99.90;;;0.84;88.88;96324.69;5215797;28;20574;-70
2021/01/25 08:03:46;;;;;;;14.23;12.73;;;-0.10;99.90;;;0.86;89.02;96332.34;5220428;28;20258;-70
2021/01/25 08:06:36;;;;;;;14.37;12.97;;;-0.10;99.90;;;0.90;88.87;96335.16;5213830;28;20213;-70
2021/01/25 08:09:11;;;;;;;14.03;12.60;;;0.00;99.90;;;0.90;88.72;96337.69;5202524;28;20207;-69
2021/01/25 08:11:43;;;;;;;14.30;12.80;;;0.00;99.90;;;0.94;88.84;96336.25;5221102;28;20551;-69
2021/01/25 08:14:24;;;;;;;15.43;13.83;;;0.00;99.90;;;0.95;88.84;96347.19;5223012;28;20582;-70
2021/01/25 08:17:01;;;;;;;14.03;12.67;;;0.00;99.90;;;1.00;88.80;96345.84;5216122;28;20229;-73
2021/01/25 08:19:40;;;;;;;14.73;13.33;;;0.10;99.90;;;1.02;89.36;96349.34;5218964;28;20591;-69
2021/01/25 08:22:18;;;;;;;16.50;14.17;;;0.20;99.90;;;1.02;89.27;96344.31;5221223;28;20205;-71
2021/01/25 08:24:54;;;;;;;16.13;14.60;;;0.20;99.90;;;1.07;89.16;96353.06;5220083;28;20291;-71
2021/01/25 08:27:28;;;;;;;16.90;15.20;;;0.30;99.90;;;1.10;89.07;96350.75;5222231;28;20185;-73
2021/01/25 08:30:07;;;;;;;18.57;16.80;;;0.30;99.90;;;1.15;89.68;96356.97;5217086;28;20655;-71
2021/01/25 08:32:43;;;;;;;17.93;16.00;;;0.30;99.90;;;1.20;89.40;96360.66;5215448;28;20590;-70
2021/01/25 08:35:34;;;;;;;18.30;16.50;;;0.30;99.90;;;1.21;89.40;96361.56;5222220;28;20255;-70
2021/01/25 08:38:23;;;;;;;18.23;15.83;;;0.40;99.90;;;1.22;88.78;96361.66;5222009;28;20206;-70
2021/01/25 08:41:01;;;;;;;19.33;16.13;;;0.40;99.90;;;1.21;88.74;96364.94;5221722;28;20230;-68
2021/01/25 08:43:34;;;;;;;19.57;17.57;;;0.40;99.90;;;1.24;88.61;96377.72;5223193;28;20225;-69
2021/01/25 08:46:13;;;;;;;18.37;16.33;;;0.40;99.90;;;1.27;88.76;96367.00;5224803;28;20196;-73
2021/01/25 08:48:46;;;;;;;17.20;15.50;;;0.40;99.90;;;1.26;88.72;96376.19;5224389;28;20198;-71
2021/01/25 08:51:29;;;;;;;15.97;14.37;;;0.50;99.90;;;1.27;88.47;96375.41;5225285;28;20193;-72
2021/01/25 08:54:04;;;;;;;15.93;14.23;;;0.50;99.90;;;1.33;88.27;96383.38;5225571;28;20706;-72
2021/01/25 08:56:40;;;;;;;15.20;13.60;;;0.50;99.90;;;1.32;88.64;96385.81;5215625;28;20235;-72
2021/01/25 08:59:14;;;;;;;14.37;12.97;;;0.50;99.90;;;1.27;87.90;96388.00;5226624;28;20673;-71
2021/01/25 09:01:47;;;;;;;16.63;15.03;;;0.50;99.90;;;1.34;87.96;96392.69;5214631;28;20206;-72
2021/01/25 09:04:19;;;;;;;15.60;14.10;;;0.60;99.90;;;1.41;87.64;96393.09;5214318;28;20261;-72
2021/01/25 09:06:54;;;;;;;16.57;14.67;;;0.60;99.90;;;1.46;87.78;96394.28;5204509;28;20193;-72
2021/01/25 09:09:26;;;;;;;17.83;15.93;;;0.70;99.90;;;1.47;87.96;96403.59;5221814;28;20279;-72
2021/01/25 09:11:58;;;;;;;17.20;15.40;;;0.70;99.90;;;1.50;87.67;96406.31;5223742;28;20198;-72
2021/01/25 09:14:31;;;;;;;19.27;15.83;;;0.70;99.90;;;1.50;88.06;96408.84;5223894;28;20206;-72
2021/01/25 09:17:04;;;;;;;17.23;15.37;;;0.70;99.90;;;1.60;86.86;96416.22;5220296;28;20313;-71
2021/01/25 09:19:37;;;;;;;15.87;14.03;;;0.70;99.90;;;1.53;87.62;96422.50;5224300;28;20193;-73
2021/01/25 09:22:13;;;;;;;16.70;14.63;;;0.70;99.90;;;1.52;87.49;96418.25;5225347;28;20207;-72
2021/01/25 09:24:45;;;;;;;15.70;14.10;;;0.70;99.90;;;1.54;87.55;96423.34;5218257;28;20200;-72
2021/01/25 09:27:17;;;;;;;15.87;14.37;;;0.70;99.90;;;1.49;88.03;96423.06;5220533;28;20287;-72
2021/01/25 09:29:49;;;;;;;18.83;14.00;;;0.70;99.90;;;1.49;87.98;96419.69;5222695;28;20664;-73
2021/01/25 09:32:22;;;;;;;15.57;14.07;;;0.70;99.90;;;1.53;88.42;96431.69;5221005;28;20225;-72
2021/01/25 09:34:54;;;;;;;15.10;13.50;;;0.80;99.90;;;1.55;87.55;96433.56;5224944;28;20299;-72
2021/01/25 09:37:26;;;;;;;16.30;14.77;;;0.80;99.90;;;1.59;87.78;96437.13;5223449;28;20201;-72
2021/01/25 09:39:58;;;;;;;16.87;15.07;;;0.80;99.90;;;1.62;87.53;96442.38;5210038;28;20223;-71
2021/01/25 09:42:31;;;;;;;15.77;14.17;;;0.80;99.90;;;1.71;87.80;96452.19;5219631;28;20251;-72
2021/01/25 09:45:17;;;;;;;16.13;14.63;;;0.80;99.90;;;1.69;87.06;96449.59;5218764;28;20239;-71
2021/01/25 09:47:51;;;;;;;17.20;15.40;;;0.80;99.90;;;1.68;87.59;96462.94;5222706;28;20206;-72
2021/01/25 09:50:23;;;;;;;16.40;14.83;;;0.80;99.90;;;1.69;87.20;96459.66;5210237;28;20307;-72
2021/01/25 09:52:56;;;;;;;16.80;15.07;;;0.80;99.90;;;1.68;87.79;96465.47;5217656;28;20676;-72
2021/01/25 09:55:28;;;;;;;16.83;15.13;;;0.80;99.90;;;1.62;87.36;96472.59;5212575;28;20217;-75
2021/01/25 09:58:02;;;;;;;18.37;16.47;;;0.80;99.90;;;1.57;88.65;96474.81;5216926;28;20196;-74
2021/01/25 10:00:34;;;;;;;17.27;15.47;;;0.80;99.90;;;1.74;88.23;96478.47;5208145;28;20200;-70
2021/01/25 10:03:07;;;;;;;18.27;16.30;;;0.90;99.90;;;1.77;87.99;96475.28;5217281;28;20216;-70
2021/01/25 10:05:39;;;;;;;18.70;16.70;;;0.90;99.90;;;1.66;88.21;96477.09;5223526;28;20553;-69
2021/01/25 10:08:12;;;;;;;18.77;16.93;;;0.90;99.90;;;1.70;89.21;96479.03;5224513;28;20212;-72
2021/01/25 10:10:44;;;;;;;19.77;17.80;;;1.00;99.90;;;1.76;88.56;96486.13;5216420;28;20671;-72
2021/01/25 10:13:16;;;;;;;20.83;18.63;;;1.10;99.90;;;1.80;88.60;96483.03;5219974;28;20318;-73
2021/01/25 10:15:48;;;;;;;21.20;19.00;;;1.10;99.90;;;1.85;89.71;96485.88;5216526;28;20220;-73
2021/01/25 10:18:21;;;;;;;21.50;19.20;;;1.10;99.90;;;1.83;89.46;96492.44;5222029;28;20776;-73
2021/01/25 10:20:53;;;;;;;22.20;19.90;;;1.10;99.90;;;1.83;90.10;96494.97;5221776;28;20638;-73
2021/01/25 10:23:25;;;;;;;21.17;18.87;;;1.10;99.90;;;1.84;89.38;96494.22;5227440;28;20210;-73
2021/01/25 10:25:59;;;;;;;20.60;18.33;;;1.10;99.90;;;1.83;89.53;96498.34;5227942;28;20212;-72
2021/01/25 10:28:31;;;;;;;21.23;18.53;;;1.10;99.90;;;1.84;90.44;96499.25;5224919;28;20215;-72
2021/01/25 10:31:03;;;;;;;19.83;17.73;;;1.10;99.90;;;1.85;89.57;96506.91;5221013;28;20202;-72
2021/01/25 10:33:36;;;;;;;20.53;17.27;;;1.10;99.90;;;1.82;90.03;96504.19;5227676;28;21134;-71
2021/01/25 10:36:09;;;;;;;22.20;19.40;;;1.10;99.90;;;1.83;90.69;96510.09;5223078;28;20322;-73
2021/01/25 10:38:41;;;;;;;23.93;20.43;;;1.10;99.90;;;1.84;90.68;96514.38;5218348;28;20197;-73
2021/01/25 10:41:13;;;;;;;20.93;18.83;;;1.10;99.90;;;1.80;90.47;96511.66;5225477;28;20208;-72
2021/01/25 10:43:45;;;;;;;21.20;18.73;;;1.10;99.90;;;1.82;91.06;96518.41;5222790;28;20787;-72
2021/01/25 10:46:19;;;;;;;20.53;18.30;;;1.10;99.90;;;1.79;91.40;96521.59;5223427;28;20200;-72